Time;durP1;ratioP1;P1;durP2;ratioP2;P2;SDS_P1;SDS_P2;PMS_P1;PMS_P2;Temp;Humidity;BMP_temperature;BMP_pressure;BME280_temperature;BME280_humidity;BME280_pressure;Samples;Min_cycle;Max_cycle;Signal;HPM_P1;HPM_P2
2021/03/07 00:00:42;;;;;;;9.38;5.20;;;;;;;-144.40;100.00;60209.53;5074567;28;20434;-88
2021/03/07 00:03:08;;;;;;;6.03;4.57;;;;;;;-144.40;100.00;60209.53;5074882;28;20028;-89
2021/03/07 00:05:33;;;;;;;9.25;5.25;;;;;;;-144.40;100.00;60209.53;5074331;28;20378;-89
2021/03/07 00:07:59;;;;;;;6.78;5.25;;;;;;;-144.40;100.00;60209.53;5074245;28;20032;-89
2021/03/07 00:10:24;;;;;;;15.10;4.78;;;;;;;-144.40;100.00;60209.53;5056308;28;20077;-89
2021/03/07 00:12:50;;;;;;;12.30;5.45;;;;;;;-144.40;100.00;60209.53;5074278;28;20029;-89
2021/03/07 00:15:19;;;;;;;8.88;5.78;;;;;;;-144.40;100.00;60209.53;5074147;28;20029;-89
2021/03/07 00:17:47;;;;;;;8.25;5.10;;;;;;;-144.40;100.00;60209.53;5056310;28;20387;-89
2021/03/07 00:20:15;;;;;;;11.95;5.95;;;;;;;-144.40;100.00;60209.53;5074164;28;20443;-86
2021/03/07 00:22:40;;;;;;;8.55;5.38;;;;;;;-144.40;100.00;60209.53;5073795;28;20025;-89
2021/03/07 00:25:08;;;;;;;10.25;6.07;;;;;;;-144.40;100.00;60209.53;5074067;28;20454;-89
2021/03/07 00:27:35;;;;;;;11.85;6.60;;;;;;;-144.40;100.00;60209.53;5073921;28;20073;-89
2021/03/07 00:30:00;;;;;;;11.25;6.32;;;;;;;-144.40;100.00;60209.53;5074068;28;20103;-89
2021/03/07 00:32:26;;;;;;;9.85;6.05;;;;;;;-144.40;100.00;60209.53;5055812;28;20503;-89
2021/03/07 00:34:51;;;;;;;12.05;6.78;;;;;;;-144.40;100.00;60209.53;5056157;28;20054;-89
2021/03/07 00:37:16;;;;;;;10.45;6.35;;;;;;;-144.40;100.00;60209.53;5055846;28;20491;-88
2021/03/07 00:39:42;;;;;;;9.05;5.65;;;;;;;-144.40;100.00;60209.53;5073772;28;20398;-88
2021/03/07 00:42:07;;;;;;;9.35;6.00;;;;;;;-144.40;100.00;60209.53;5073508;28;20043;-89
2021/03/07 00:44:33;;;;;;;8.07;5.47;;;;;;;-144.40;100.00;60209.53;5073923;28;20382;-88
2021/03/07 00:46:59;;;;;;;9.48;5.13;;;;;;;-144.40;100.00;60209.53;5055525;28;20115;-88
2021/03/07 00:49:27;;;;;;;11.13;6.18;;;;;;;-144.40;100.00;60209.53;5055872;28;20063;-89
2021/03/07 00:51:53;;;;;;;12.40;6.53;;;;;;;-144.40;100.00;60209.53;5073642;28;20051;-88
2021/03/07 00:54:18;;;;;;;11.40;5.75;;;;;;;-144.40;100.00;60209.53;5073426;28;20426;-89
2021/03/07 00:56:44;;;;;;;11.25;6.75;;;;;;;-144.40;100.00;60209.53;5073745;28;20021;-89
2021/03/07 00:59:09;;;;;;;8.80;5.35;;;;;;;-144.40;100.00;60209.53;5073522;28;20032;-89
2021/03/07 01:01:35;;;;;;;6.63;5.18;;;;;;;-144.40;100.00;60209.53;5073413;28;20056;-89
2021/03/07 01:04:00;;;;;;;7.95;5.25;;;;;;;-144.40;100.00;60209.53;5073791;28;20548;-89
2021/03/07 01:06:26;;;;;;;9.40;5.50;;;;;;;-144.40;100.00;60209.53;5073472;28;20381;-89
2021/03/07 01:08:52;;;;;;;9.73;6.22;;;;;;;-144.40;100.00;60209.53;5055504;28;20024;-88
2021/03/07 01:11:17;;;;;;;11.00;6.15;;;;;;;-144.40;100.00;60209.53;5073239;28;20085;-89
2021/03/07 01:13:42;;;;;;;7.53;5.70;;;;;;;-144.40;100.00;60209.53;5073153;28;20466;-89
2021/03/07 01:16:08;;;;;;;9.35;5.93;;;;;;;-144.40;100.00;60209.53;5055082;28;20016;-88
2021/03/07 01:18:34;;;;;;;11.05;6.20;;;;;;;-144.40;100.00;60209.53;5055176;28;20031;-88
2021/03/07 01:21:00;;;;;;;9.63;6.70;;;;;;;-144.40;100.00;60209.53;5055081;28;20470;-89
2021/03/07 01:23:28;;;;;;;9.25;6.50;;;;;;;-144.40;100.00;60209.53;5073059;28;20021;-88
2021/03/07 01:25:53;;;;;;;11.13;6.30;;;;;;;-144.40;100.00;60209.53;5055269;28;20060;-88
2021/03/07 01:28:19;;;;;;;10.82;6.95;;;;;;;-144.40;100.00;60209.53;5072748;28;20464;-88
2021/03/07 01:30:44;;;;;;;10.35;6.65;;;;;;;-144.40;100.00;60209.53;5055206;28;20031;-88
2021/03/07 01:33:10;;;;;;;9.00;6.72;;;;;;;-144.40;100.00;60209.53;5072952;28;20174;-89
2021/03/07 01:35:37;;;;;;;9.25;6.43;;;;;;;-144.40;100.00;60209.53;5072787;28;20429;-88
2021/03/07 01:38:03;;;;;;;9.65;6.00;;;;;;;-144.40;100.00;60209.53;5072701;28;20034;-89
2021/03/07 01:40:35;;;;;;;9.05;6.90;;;;;;;-144.40;100.00;60209.53;5073294;28;20418;-89
2021/03/07 01:43:04;;;;;;;12.27;7.50;;;;;;;-144.40;100.00;60209.53;5072771;28;20024;-88
2021/03/07 01:45:30;;;;;;;10.88;6.78;;;;;;;-144.40;100.00;60209.53;5073685;28;20382;-89
2021/03/07 01:47:59;;;;;;;9.27;6.90;;;;;;;-144.40;100.00;60209.53;5083183;28;20052;-86
2021/03/07 01:50:30;;;;;;;9.25;6.15;;;;;;;-144.40;100.00;60209.53;5082500;28;20082;-89
2021/03/07 01:52:56;;;;;;;9.73;6.53;;;;;;;-144.40;100.00;60209.53;5071833;28;20029;-89
2021/03/07 01:55:31;;;;;;;10.30;6.43;;;;;;;-144.40;100.00;60209.53;5072318;28;20432;-89
2021/03/07 01:58:27;;;;;;;9.05;6.68;;;;;;;-144.40;100.00;60209.53;5072471;28;20079;-89
2021/03/07 02:00:53;;;;;;;9.80;6.40;;;;;;;-144.40;100.00;60209.53;5072031;28;20375;-88
2021/03/07 02:03:19;;;;;;;9.27;6.65;;;;;;;-144.40;100.00;60209.53;5072418;28;20497;-89
2021/03/07 02:05:46;;;;;;;8.50;6.60;;;;;;;-144.40;100.00;60209.53;5072167;28;20029;-87
2021/03/07 02:08:12;;;;;;;10.15;6.63;;;;;;;-144.40;100.00;60209.53;5072063;28;20132;-88
2021/03/07 02:10:40;;;;;;;7.88;5.72;;;;;;;-144.40;100.00;60209.53;5072148;28;20108;-88
2021/03/07 02:13:18;;;;;;;10.15;6.70;;;;;;;-144.40;100.00;60209.53;5071924;28;20107;-88
2021/03/07 02:15:48;;;;;;;11.20;5.90;;;;;;;-144.40;100.00;60209.53;5072227;28;20029;-88
2021/03/07 02:18:15;;;;;;;10.85;6.35;;;;;;;-144.40;100.00;60209.53;5071990;28;20020;-88
2021/03/07 02:20:52;;;;;;;11.45;6.75;;;;;;;-144.40;100.00;60209.53;5072109;28;20031;-88
2021/03/07 02:23:21;;;;;;;13.07;7.22;;;;;;;-144.40;100.00;60209.53;5071790;28;20083;-88
2021/03/07 02:25:49;;;;;;;10.85;6.93;;;;;;;-144.40;100.00;60209.53;5071847;28;20029;-88
2021/03/07 02:28:15;;;;;;;11.00;7.70;;;;;;;-144.40;100.00;60209.53;5053661;28;20029;-88
2021/03/07 02:30:40;;;;;;;11.52;7.82;;;;;;;-144.40;100.00;60209.53;5071850;28;20391;-87
2021/03/07 02:33:13;;;;;;;12.95;8.10;;;;;;;-144.40;100.00;60209.53;5071652;28;20064;-89
2021/03/07 02:35:44;;;;;;;16.02;8.77;;;;;;;-144.40;100.00;60209.53;5071738;28;20360;-88
2021/03/07 02:38:12;;;;;;;12.13;8.32;;;;;;;-144.40;100.00;60209.53;5053976;28;20055;-88
2021/03/07 02:40:37;;;;;;;11.98;7.78;;;;;;;-144.40;100.00;60209.53;5071746;28;20478;-88
2021/03/07 02:43:06;;;;;;;11.18;7.78;;;;;;;-144.40;100.00;60209.53;5071945;28;20068;-88
2021/03/07 02:45:31;;;;;;;10.88;7.75;;;;;;;-144.40;100.00;60209.53;5071705;28;20017;-87
2021/03/07 02:47:58;;;;;;;9.85;7.32;;;;;;;-144.40;100.00;60209.53;5053654;28;20107;-87
2021/03/07 02:50:30;;;;;;;15.32;8.18;;;;;;;-144.40;100.00;60209.53;5071781;28;20025;-88
2021/03/07 02:53:07;;;;;;;11.48;7.72;;;;;;;-144.40;100.00;60209.53;5071453;28;20102;-87
2021/03/07 02:55:35;;;;;;;9.40;7.75;;;;;;;-144.40;100.00;60209.53;5071935;28;20073;-88
2021/03/07 02:58:03;;;;;;;13.80;8.52;;;;;;;-144.40;100.00;60209.53;5071678;28;20167;-88
2021/03/07 03:00:29;;;;;;;13.25;7.55;;;;;;;-144.40;100.00;60209.53;5053580;28;20102;-88
2021/03/07 03:02:58;;;;;;;10.90;8.05;;;;;;;-144.40;100.00;60209.53;5071942;28;20025;-88
2021/03/07 03:05:24;;;;;;;10.98;7.85;;;;;;;-144.40;100.00;60209.53;5057378;28;20024;-88
2021/03/07 03:07:50;;;;;;;14.77;8.02;;;;;;;-144.40;100.00;60209.53;5075536;28;20036;-88
2021/03/07 03:10:17;;;;;;;12.02;7.93;;;;;;;-144.40;100.00;60209.53;5057531;28;20028;-88
2021/03/07 03:12:44;;;;;;;14.27;7.75;;;;;;;-144.40;100.00;60209.53;5075418;28;20073;-87
2021/03/07 03:15:10;;;;;;;13.05;6.80;;;;;;;-144.40;100.00;60209.53;5075321;28;20025;-88
2021/03/07 03:17:39;;;;;;;13.13;7.38;;;;;;;-144.40;100.00;60209.53;5057523;28;20020;-88
2021/03/07 03:20:10;;;;;;;13.23;7.43;;;;;;;-144.40;100.00;60209.53;5057447;28;20025;-89
2021/03/07 03:22:35;;;;;;;8.98;6.45;;;;;;;-144.40;100.00;60209.53;5057436;28;20478;-89
2021/03/07 03:25:01;;;;;;;11.07;6.75;;;;;;;-144.40;100.00;60209.53;5075222;28;20035;-88
2021/03/07 03:27:26;;;;;;;9.57;7.13;;;;;;;-144.40;100.00;60209.53;5075317;28;20086;-88
2021/03/07 03:29:52;;;;;;;9.48;6.85;;;;;;;-144.40;100.00;60209.53;5075198;28;20483;-88
2021/03/07 03:32:18;;;;;;;13.18;7.45;;;;;;;-144.40;100.00;60209.53;5075018;28;20039;-88
2021/03/07 03:34:43;;;;;;;12.57;7.25;;;;;;;-144.40;100.00;60209.53;5075006;28;20025;-88
2021/03/07 03:37:09;;;;;;;14.57;7.90;;;;;;;-144.40;100.00;60209.53;5074893;28;20043;-88
2021/03/07 03:39:37;;;;;;;10.57;7.13;;;;;;;-144.40;100.00;60209.53;5075166;28;20025;-88
2021/03/07 03:42:06;;;;;;;12.98;8.40;;;;;;;-144.40;100.00;60209.53;5057104;28;20060;-88
2021/03/07 03:44:39;;;;;;;14.77;7.53;;;;;;;-144.40;100.00;60209.53;5074887;28;20024;-88
2021/03/07 03:47:09;;;;;;;10.48;7.35;;;;;;;-144.40;100.00;60209.53;5074771;28;20056;-88
2021/03/07 03:49:51;;;;;;;9.07;6.77;;;;;;;-144.40;100.00;60209.53;5074992;28;20020;-88
2021/03/07 03:52:19;;;;;;;7.93;6.10;;;;;;;-144.40;100.00;60209.53;5074881;28;20021;-88
2021/03/07 03:55:10;;;;;;;9.20;6.88;;;;;;;-144.40;100.00;60209.53;5074668;28;20032;-88
2021/03/07 03:57:37;;;;;;;10.50;6.63;;;;;;;-144.40;100.00;60209.53;5067251;28;20036;-88
2021/03/07 04:00:07;;;;;;;11.02;6.80;;;;;;;-144.40;100.00;60209.53;5074528;28;20025;-88
2021/03/07 04:05:17;;;;;;;10.20;7.00;;;;;;;-144.40;100.00;60209.53;5053313;28;20487;-85
2021/03/07 04:07:45;;;;;;;8.32;5.70;;;;;;;-144.40;100.00;60209.53;5054652;28;20115;-85
2021/03/07 04:10:11;;;;;;;8.25;6.00;;;;;;;-144.40;100.00;60209.53;5054593;28;20052;-85
2021/03/07 04:12:38;;;;;;;11.60;7.45;;;;;;;-144.40;100.00;60209.53;5051973;28;20060;-85
2021/03/07 04:15:05;;;;;;;11.60;6.97;;;;;;;-144.40;100.00;60209.53;5038506;28;20033;-85
2021/03/07 04:17:32;;;;;;;11.52;7.22;;;;;;;-144.40;100.00;60209.53;5034355;28;20407;-85
2021/03/07 04:19:57;;;;;;;15.15;7.30;;;;;;;-144.40;100.00;60209.53;5034305;28;20030;-85
2021/03/07 04:22:23;;;;;;;14.55;7.22;;;;;;;-144.40;100.00;60209.53;5032978;28;20025;-85
2021/03/07 04:24:48;;;;;;;10.88;7.13;;;;;;;-144.40;100.00;60209.53;5032908;28;20079;-85
2021/03/07 04:27:15;;;;;;;10.38;6.53;;;;;;;-144.40;100.00;60209.53;5034195;28;20109;-85
2021/03/07 04:29:42;;;;;;;10.18;7.43;;;;;;;-144.40;100.00;60209.53;5034125;28;20021;-85
2021/03/07 04:32:09;;;;;;;12.32;7.93;;;;;;;-144.40;100.00;60209.53;5034259;28;20028;-85
2021/03/07 04:34:35;;;;;;;9.82;7.45;;;;;;;-144.40;100.00;60209.53;5034063;28;20028;-85
2021/03/07 04:37:00;;;;;;;11.23;7.40;;;;;;;-144.40;100.00;60209.53;5032517;28;20437;-85
2021/03/07 04:39:26;;;;;;;10.52;7.07;;;;;;;-144.40;100.00;60209.53;5033696;28;20105;-85
2021/03/07 04:41:52;;;;;;;10.07;7.45;;;;;;;-144.40;100.00;60209.53;5034006;28;20422;-85
2021/03/07 04:44:17;;;;;;;10.95;7.32;;;;;;;-144.40;100.00;60209.53;5033866;28;20019;-85
2021/03/07 04:46:43;;;;;;;13.27;9.27;;;;;;;-144.40;100.00;60209.53;5033649;28;20044;-85
2021/03/07 04:49:08;;;;;;;10.15;7.68;;;;;;;-144.40;100.00;60209.53;5049315;28;20033;-86
2021/03/07 04:51:33;;;;;;;12.07;8.65;;;;;;;-144.40;100.00;60209.53;5033705;28;20105;-85
2021/03/07 04:53:59;;;;;;;11.38;7.93;;;;;;;-144.40;100.00;60209.53;5032951;28;20033;-86
2021/03/07 04:56:28;;;;;;;11.80;7.70;;;;;;;-144.40;100.00;60209.53;5033736;28;20029;-85
2021/03/07 04:58:54;;;;;;;12.60;6.53;;;;;;;-144.40;100.00;60209.53;5033326;28;20083;-86
2021/03/07 05:01:19;;;;;;;12.38;6.70;;;;;;;-144.40;100.00;60209.53;5033778;28;20021;-86
2021/03/07 05:03:44;;;;;;;10.75;7.63;;;;;;;-144.40;100.00;60209.53;5034120;28;20029;-86
2021/03/07 05:06:11;;;;;;;12.35;7.10;;;;;;;-144.40;100.00;60209.53;5033404;28;20468;-85
2021/03/07 05:08:37;;;;;;;10.90;7.30;;;;;;;-144.40;100.00;60209.53;5033572;28;20021;-86
2021/03/07 05:11:03;;;;;;;11.05;7.18;;;;;;;-144.40;100.00;60209.53;5033202;28;20030;-86
2021/03/07 05:13:28;;;;;;;9.68;6.72;;;;;;;-144.40;100.00;60209.53;5033224;28;20030;-85
2021/03/07 05:15:53;;;;;;;8.73;7.18;;;;;;;-144.40;100.00;60209.53;5033449;28;20025;-86
2021/03/07 05:18:19;;;;;;;11.20;9.02;;;;;;;-144.40;100.00;60209.53;5033427;28;20033;-85
2021/03/07 05:20:44;;;;;;;11.38;7.05;;;;;;;-144.40;100.00;60209.53;5033422;28;20033;-85
2021/03/07 05:23:10;;;;;;;9.77;6.65;;;;;;;-144.40;100.00;60209.53;5032616;28;20040;-86
2021/03/07 05:25:35;;;;;;;10.60;7.47;;;;;;;-144.40;100.00;60209.53;5033057;28;20495;-85
2021/03/07 05:28:01;;;;;;;13.15;8.65;;;;;;;-144.40;100.00;60209.53;5031979;28;20283;-85
2021/03/07 05:30:26;;;;;;;16.23;9.77;;;;;;;-144.40;100.00;60209.53;5031339;28;20037;-85
2021/03/07 05:32:52;;;;;;;16.25;9.35;;;;;;;-144.40;100.00;60209.53;5027003;28;20021;-85
2021/03/07 05:35:19;;;;;;;17.85;11.00;;;;;;;-144.40;100.00;60209.53;5030678;28;20022;-85
2021/03/07 05:37:44;;;;;;;18.15;10.65;;;;;;;-144.40;100.00;60209.53;5031161;28;20032;-85
2021/03/07 05:40:10;;;;;;;14.82;11.30;;;;;;;-144.40;100.00;60209.53;5032631;28;20025;-85
2021/03/07 05:42:36;;;;;;;12.88;9.35;;;;;;;-144.40;100.00;60209.53;5030992;28;20025;-85
2021/03/07 05:45:02;;;;;;;11.52;8.63;;;;;;;-144.40;100.00;60209.53;5031139;28;20049;-85
2021/03/07 05:47:27;;;;;;;14.90;9.18;;;;;;;-144.40;100.00;60209.53;5027777;28;20107;-85
2021/03/07 05:52:06;;;;;;;12.35;9.43;;;;;;;3.47;68.74;101806.16;5077282;28;20382;-84
2021/03/07 05:54:32;;;;;;;16.80;9.18;;;;;;;3.53;69.57;101817.31;5065401;28;20037;-84
2021/03/07 05:56:58;;;;;;;17.48;9.90;;;;;;;3.57;70.37;101813.81;5048835;28;20117;-84
2021/03/07 05:59:24;;;;;;;13.93;9.48;;;;;;;3.51;70.41;101807.84;5048781;28;20064;-84
2021/03/07 06:01:49;;;;;;;15.30;10.00;;;;;;;3.44;67.90;101811.44;5055531;28;20040;-84
2021/03/07 06:04:15;;;;;;;15.50;10.13;;;;;;;3.47;68.64;101804.41;5074862;22;20465;-87
2021/03/07 06:06:40;;;;;;;15.18;10.60;;;;;;;3.46;68.37;101810.50;5066731;28;20441;-87
2021/03/07 06:09:17;;;;;;;15.88;9.15;;;;;;;3.50;70.50;101812.16;5066948;28;20041;-87
2021/03/07 06:11:43;;;;;;;11.48;8.80;;;;;;;3.48;70.73;101807.91;5067332;28;20520;-87
2021/03/07 06:14:37;;;;;;;16.92;10.90;;;;;;;3.53;70.61;101812.09;5066688;28;20056;-87
2021/03/07 06:17:08;;;;;;;16.33;10.07;;;;;;;3.34;70.07;101810.72;5034232;28;20037;-87
2021/03/07 06:19:52;;;;;;;15.55;9.80;;;;;;;3.39;70.26;101803.69;5047894;28;20104;-86
2021/03/07 06:22:18;;;;;;;15.98;10.73;;;;;;;3.38;69.43;101812.38;5049596;28;20032;-86
2021/03/07 06:24:43;;;;;;;20.13;10.23;;;;;;;3.35;70.14;101802.03;5067887;28;20033;-86
2021/03/07 06:27:14;;;;;;;16.00;10.15;;;;;;;3.33;68.78;101804.63;5068104;28;20033;-87
2021/03/07 06:30:15;;;;;;;16.83;11.80;;;;;;;3.41;69.73;101808.88;5064737;28;20470;-87
2021/03/07 06:32:55;;;;;;;16.00;11.38;;;;;;;3.44;68.94;101814.88;5059769;28;20033;-87
2021/03/07 06:35:26;;;;;;;21.23;12.38;;;;;;;3.48;70.84;101811.34;5067229;28;20025;-87
2021/03/07 06:38:03;;;;;;;17.95;10.95;;;;;;;3.42;71.46;101808.00;5067095;28;20025;-88
2021/03/07 06:40:31;;;;;;;16.73;10.20;;;;;;;3.51;71.19;101813.03;5067235;28;20041;-87
2021/03/07 06:42:58;;;;;;;17.13;10.18;;;;;;;3.51;71.27;101802.63;5067818;28;20043;-87
2021/03/07 06:45:35;;;;;;;15.43;9.60;;;;;;;3.57;71.30;101805.13;5067899;28;20021;-87
2021/03/07 06:48:01;;;;;;;15.20;10.02;;;;;;;3.87;69.79;101806.38;5066222;28;20102;-87
2021/03/07 06:50:27;;;;;;;17.13;10.75;;;;;;;3.98;70.46;101807.00;5058637;28;20033;-87
2021/03/07 06:52:53;;;;;;;15.85;11.00;;;;;;;4.01;69.31;101807.84;5047858;28;20120;-87
2021/03/07 06:55:21;;;;;;;15.82;10.00;;;;;;;4.01;69.14;101805.25;5047813;28;20057;-85
2021/03/07 06:57:47;;;;;;;14.50;10.35;;;;;;;4.03;69.46;101806.06;5048008;28;20095;-86
2021/03/07 07:00:13;;;;;;;14.63;10.70;;;;;;;4.08;69.05;101807.72;5046685;28;20060;-86
2021/03/07 07:02:39;;;;;;;17.63;10.50;;;;;;;4.09;69.59;101816.38;5041207;28;20033;-88
2021/03/07 07:05:05;;;;;;;15.75;10.30;;;;;;;4.09;68.89;101816.38;5034786;28;20029;-87
2021/03/07 07:07:30;;;;;;;19.23;10.68;;;;;;;4.14;69.64;101801.53;5033124;28;20510;-87
2021/03/07 07:09:59;;;;;;;15.05;10.80;;;;;;;4.23;68.93;101811.78;5049644;28;20504;-87
2021/03/07 07:12:28;;;;;;;16.50;10.45;;;;;;;4.26;69.67;101811.69;5034343;28;20112;-88
2021/03/07 07:15:03;;;;;;;14.23;10.07;;;;;;;4.34;69.12;101817.63;5032944;28;20376;-87
2021/03/07 07:17:28;;;;;;;14.90;10.82;;;;;;;4.26;65.58;101814.28;5034172;28;20026;-87
2021/03/07 07:19:55;;;;;;;15.30;10.30;;;;;;;4.24;68.03;101803.06;5034312;28;20014;-88
2021/03/07 07:22:20;;;;;;;19.17;11.63;;;;;;;4.31;67.60;101812.47;5032949;28;20026;-87
2021/03/07 07:24:46;;;;;;;14.10;9.30;;;;;;;4.30;66.35;101815.94;5034191;28;20027;-88
2021/03/07 07:27:12;;;;;;;13.23;9.95;;;;;;;4.23;65.76;101819.56;5053585;28;20059;-87
2021/03/07 07:29:39;;;;;;;16.02;11.07;;;;;;;4.32;67.51;101814.19;5053676;28;20064;-87
2021/03/07 07:32:11;;;;;;;21.73;10.98;;;;;;;4.40;67.94;101813.19;5053634;28;20383;-88
2021/03/07 07:34:47;;;;;;;17.60;11.48;;;;;;;4.43;67.69;101816.59;5053886;28;20100;-88
2021/03/07 07:37:28;;;;;;;16.52;11.57;;;;;;;4.29;66.34;101798.66;5053719;28;20028;-88
2021/03/07 07:39:55;;;;;;;16.08;11.00;;;;;;;4.29;64.58;101810.81;5053757;28;20033;-87
2021/03/07 07:42:23;;;;;;;16.67;11.60;;;;;;;4.58;65.56;101805.00;5053818;28;20025;-87
2021/03/07 07:44:50;;;;;;;18.88;12.68;;;;;;;5.44;65.22;101807.44;5052086;28;20060;-88
2021/03/07 07:47:16;;;;;;;18.33;11.50;;;;;;;6.53;60.34;101807.22;5054201;28;20027;-89
2021/03/07 07:49:47;;;;;;;18.67;12.13;;;;;;;7.65;60.90;101814.22;5053509;28;20075;-89
2021/03/07 07:52:25;;;;;;;16.60;11.07;;;;;;;8.56;58.26;101811.06;5065596;28;20098;-90
2021/03/07 07:54:55;;;;;;;16.70;10.93;;;;;;;9.15;57.74;101817.56;5051378;28;20116;-89
2021/03/07 07:57:36;;;;;;;17.08;10.57;;;;;;;9.33;49.98;101818.59;5065222;28;20036;-86
2021/03/07 08:00:06;;;;;;;17.08;10.45;;;;;;;9.73;52.52;101811.72;5065746;28;20114;-89
2021/03/07 08:05:26;;;;;;;17.13;9.80;;;;;;;10.62;50.08;101809.63;5070458;28;20052;-85
2021/03/07 08:08:01;;;;;;;13.60;9.93;;;;;;;11.42;50.26;101809.31;5072102;28;20414;-85
2021/03/07 08:10:48;;;;;;;12.73;9.88;;;;;;;11.70;44.42;101818.47;5083493;28;20032;-85
2021/03/07 08:13:34;;;;;;;16.70;10.18;;;;;;;11.97;43.57;101825.97;5068140;28;20028;-85
2021/03/07 08:16:01;;;;;;;15.00;8.98;;;;;;;12.30;46.56;101816.31;5065089;28;20072;-85
2021/03/07 08:18:55;;;;;;;15.07;9.60;;;;;;;12.48;48.15;101825.00;5060671;28;20390;-85
2021/03/07 08:21:21;;;;;;;17.55;10.63;;;;;;;13.33;44.27;101807.22;5073091;28;20029;-85
2021/03/07 08:24:06;;;;;;;18.58;11.32;;;;;;;13.72;41.86;101821.66;5064881;28;20486;-85
2021/03/07 08:26:44;;;;;;;17.92;11.45;;;;;;;14.40;42.42;101812.31;5071227;28;20062;-86
2021/03/07 08:29:38;;;;;;;20.15;12.02;;;;;;;14.46;42.10;101810.13;5060121;28;20052;-86
2021/03/07 08:32:36;;;;;;;19.85;12.05;;;;;;;14.44;37.72;101809.38;5073216;28;20074;-86
2021/03/07 08:35:31;;;;;;;16.15;11.63;;;;;;;14.55;41.49;101808.72;5067857;28;20380;-86
2021/03/07 08:38:16;;;;;;;19.38;11.52;;;;;;;14.73;37.40;101805.88;5065240;28;20509;-86
2021/03/07 08:40:43;;;;;;;18.50;11.73;;;;;;;15.26;36.66;101798.94;5092840;28;20031;-86
2021/03/07 08:43:21;;;;;;;17.77;11.63;;;;;;;15.17;36.66;101807.50;5085726;28;20073;-86
2021/03/07 08:46:05;;;;;;;18.40;11.70;;;;;;;15.64;37.68;101809.66;5054199;28;20441;-86
2021/03/07 08:48:32;;;;;;;17.75;11.75;;;;;;;16.54;37.43;101801.72;5050989;28;20025;-85
2021/03/07 08:50:58;;;;;;;15.57;10.52;;;;;;;16.61;36.12;101803.00;5052502;28;20025;-86
2021/03/07 08:53:29;;;;;;;15.85;11.52;;;;;;;17.07;34.53;101811.28;5052523;28;20028;-86
2021/03/07 08:55:55;;;;;;;12.63;10.23;;;;;;;17.40;33.58;101811.44;5052997;28;20028;-85
2021/03/07 08:58:21;;;;;;;14.93;10.52;;;;;;;17.02;33.40;101807.16;5051302;28;20032;-86
2021/03/07 09:00:50;;;;;;;14.45;11.25;;;;;;;17.51;33.25;101809.78;5052424;28;20088;-86
2021/03/07 09:03:17;;;;;;;14.48;10.55;;;;;;;17.48;30.60;101804.72;5034494;28;20033;-85
2021/03/07 09:05:43;;;;;;;13.32;10.43;;;;;;;17.70;34.23;101802.13;5045436;28;20091;-85
2021/03/07 09:08:09;;;;;;;14.23;10.13;;;;;;;17.11;30.69;101805.63;5052511;28;20029;-86
2021/03/07 09:10:37;;;;;;;15.20;9.18;;;;;;;17.17;31.06;101805.19;5052655;28;20033;-86
2021/03/07 09:13:13;;;;;;;13.25;9.35;;;;;;;17.67;32.39;101797.03;5052205;28;20082;-85
2021/03/07 09:15:48;;;;;;;13.70;9.55;;;;;;;18.55;31.22;101799.09;5052414;28;20115;-85
2021/03/07 09:18:14;;;;;;;17.35;11.40;;;;;;;18.65;29.88;101793.06;5052233;28;20360;-86
2021/03/07 09:20:46;;;;;;;14.38;9.75;;;;;;;19.46;29.88;101788.22;5049677;28;20102;-86
2021/03/07 09:23:32;;;;;;;15.90;9.77;;;;;;;19.70;28.81;101791.47;5047901;28;20121;-86
2021/03/07 09:26:00;;;;;;;13.23;9.13;;;;;;;19.36;27.93;101785.50;5052151;28;20550;-86
2021/03/07 09:28:34;;;;;;;13.48;9.02;;;;;;;19.47;29.28;101779.25;5050587;28;20055;-86
2021/03/07 09:31:01;;;;;;;13.65;8.98;;;;;;;20.09;27.47;101786.41;5051860;28;20162;-86
2021/03/07 09:33:28;;;;;;;13.73;8.43;;;;;;;19.90;28.11;101776.47;5052137;28;20036;-85
2021/03/07 09:36:04;;;;;;;13.73;9.63;;;;;;;20.45;27.02;101778.84;5047527;28;20104;-86
2021/03/07 09:38:59;;;;;;;13.65;9.50;;;;;;;20.41;26.99;101774.75;5051800;28;20057;-85
2021/03/07 09:41:34;;;;;;;12.18;9.07;;;;;;;20.36;29.09;101777.00;5043474;28;20045;-85
2021/03/07 09:44:20;;;;;;;15.43;9.40;;;;;;;20.57;26.92;101764.41;5051986;28;20063;-85
2021/03/07 09:46:48;;;;;;;12.38;7.93;;;;;;;20.30;27.79;101767.72;5052123;28;20024;-85
2021/03/07 09:49:19;;;;;;;16.50;8.65;;;;;;;20.23;29.66;101769.22;5052009;28;20021;-85
2021/03/07 09:51:47;;;;;;;10.25;7.70;;;;;;;20.41;26.39;101767.59;5052274;28;20116;-85
2021/03/07 09:54:14;;;;;;;9.68;6.90;;;;;;;20.50;26.86;101768.63;5052062;28;20033;-85
2021/03/07 09:56:40;;;;;;;9.05;6.90;;;;;;;20.29;26.71;101768.66;5051601;28;20017;-85
2021/03/07 09:59:14;;;;;;;10.90;7.30;;;;;;;20.56;25.31;101762.72;5051751;28;20379;-85
2021/03/07 10:02:05;;;;;;;10.48;8.27;;;;;;;21.08;27.52;101767.88;5050968;28;20099;-85
2021/03/07 10:04:36;;;;;;;10.85;6.68;;;;;;;20.68;26.43;101765.31;5037990;22;20045;-90
2021/03/07 10:07:25;;;;;;;7.45;6.05;;;;;;;20.98;25.29;101765.22;4998799;28;20041;-90
2021/03/07 10:10:01;;;;;;;8.27;5.93;;;;;;;18.82;27.09;101758.81;5004098;28;20085;-88
2021/03/07 10:12:48;;;;;;;10.57;6.78;;;;;;;18.57;26.38;101753.75;5003455;28;20449;-88
2021/03/07 10:15:22;;;;;;;9.65;5.72;;;;;;;17.66;28.98;101744.06;4992008;28;20511;-89
2021/03/07 10:17:48;;;;;;;9.38;5.72;;;;;;;17.16;30.42;101760.16;4993732;28;20031;-89
2021/03/07 10:20:14;;;;;;;7.57;6.10;;;;;;;16.23;30.21;101755.34;5011353;28;20049;-89
2021/03/07 10:22:41;;;;;;;8.55;5.72;;;;;;;15.08;32.44;101756.88;5008317;28;20057;-89
2021/03/07 10:25:08;;;;;;;8.20;6.07;;;;;;;15.46;32.56;101756.16;5003961;28;20030;-88
2021/03/07 10:27:34;;;;;;;8.18;5.93;;;;;;;15.61;32.69;101748.94;4999322;28;20022;-88
2021/03/07 10:29:59;;;;;;;9.23;6.28;;;;;;;15.42;31.97;101754.66;5011560;28;20036;-88
2021/03/07 10:32:25;;;;;;;9.38;6.72;;;;;;;15.63;32.05;101752.34;4997316;28;20022;-88
2021/03/07 10:34:52;;;;;;;10.73;7.72;;;;;;;15.23;34.08;101755.03;5010513;28;20392;-88
2021/03/07 10:37:40;;;;;;;10.93;6.93;;;;;;;14.59;34.89;101752.13;5012284;28;20514;-88
2021/03/07 10:40:07;;;;;;;11.48;7.35;;;;;;;14.88;34.56;101752.88;5014837;28;20038;-88
2021/03/07 10:42:37;;;;;;;7.93;6.15;;;;;;;14.94;33.65;101743.69;5014428;28;20063;-88
2021/03/07 10:45:23;;;;;;;10.32;7.15;;;;;;;14.30;33.71;101746.00;5009842;28;20103;-88
2021/03/07 10:48:05;;;;;;;9.63;6.43;;;;;;;14.45;34.83;101746.81;5008474;28;20079;-88
2021/03/07 10:50:32;;;;;;;11.85;6.45;;;;;;;14.83;33.69;101732.97;5003460;28;20038;-87
2021/03/07 10:52:58;;;;;;;9.07;7.07;;;;;;;14.82;35.35;101740.06;5001941;28;20408;-88
2021/03/07 10:55:24;;;;;;;9.68;6.10;;;;;;;14.68;35.01;101743.59;5005201;28;20069;-88
2021/03/07 10:57:50;;;;;;;11.27;6.45;;;;;;;14.16;33.55;101728.34;5011403;28;20102;-88
2021/03/07 11:00:15;;;;;;;13.35;7.30;;;;;;;14.41;34.52;101729.44;5013235;28;20030;-88
2021/03/07 11:02:42;;;;;;;8.50;5.80;;;;;;;16.44;32.03;101737.91;5014484;28;20101;-88
2021/03/07 11:05:08;;;;;;;8.10;5.95;;;;;;;15.73;30.77;101727.94;5013620;28;20121;-88
2021/03/07 11:07:34;;;;;;;10.95;5.78;;;;;;;15.04;31.50;101723.63;5015190;28;20083;-87
2021/03/07 11:09:59;;;;;;;7.75;5.72;;;;;;;15.40;33.50;101724.81;5013430;28;20038;-88
2021/03/07 11:12:25;;;;;;;9.95;5.28;;;;;;;14.93;31.79;101712.94;5010955;28;20227;-88
2021/03/07 11:14:50;;;;;;;7.20;5.50;;;;;;;15.25;32.15;101715.25;5008988;28;20117;-88
2021/03/07 11:17:15;;;;;;;9.95;5.35;;;;;;;15.19;31.83;101710.34;5010084;28;20037;-88
2021/03/07 11:19:41;;;;;;;5.60;4.65;;;;;;;15.12;32.35;101720.47;5014141;28;20381;-88
2021/03/07 11:22:06;;;;;;;7.65;5.32;;;;;;;14.47;32.39;101716.72;5029342;28;20488;-88
2021/03/07 11:24:32;;;;;;;7.15;4.95;;;;;;;14.44;32.79;101718.69;5010915;28;20017;-89
2021/03/07 11:26:57;;;;;;;7.00;4.90;;;;;;;14.10;33.33;101699.69;4994717;28;20034;-88
2021/03/07 11:29:22;;;;;;;7.05;5.65;;;;;;;13.93;33.33;101706.00;4995458;28;20053;-88